sensor_id;sensor_type;location;lat;lon;timestamp;temperature;humidity
16116;DHT22;8162;47.104;15.432;2022-10-16T00:00:31;11.80;91.10
16116;DHT22;8162;47.104;15.432;2022-10-16T00:02:56;11.80;91.10
16116;DHT22;8162;47.104;15.432;2022-10-16T00:05:22;11.80;91.00
16116;DHT22;8162;47.104;15.432;2022-10-16T00:07:48;11.80;91.10
16116;DHT22;8162;47.104;15.432;2022-10-16T00:10:13;11.80;91.10
16116;DHT22;8162;47.104;15.432;2022-10-16T00:12:39;11.80;91.10
16116;DHT22;8162;47.104;15.432;2022-10-16T00:15:05;11.80;91.10
16116;DHT22;8162;47.104;15.432;2022-10-16T00:17:31;11.80;91.10
16116;DHT22;8162;47.104;15.432;2022-10-16T00:19:57;11.80;91.10
16116;DHT22;8162;47.104;15.432;2022-10-16T00:22:23;11.80;91.30
16116;DHT22;8162;47.104;15.432;2022-10-16T00:24:48;11.90;91.20
16116;DHT22;8162;47.104;15.432;2022-10-16T00:27:14;11.90;91.10
16116;DHT22;8162;47.104;15.432;2022-10-16T00:29:40;11.90;91.10
16116;DHT22;8162;47.104;15.432;2022-10-16T00:32:05;11.90;91.00
16116;DHT22;8162;47.104;15.432;2022-10-16T00:34:31;11.90;91.10
16116;DHT22;8162;47.104;15.432;2022-10-16T00:36:57;11.90;91.10
16116;DHT22;8162;47.104;15.432;2022-10-16T00:39:22;11.90;91.10
16116;DHT22;8162;47.104;15.432;2022-10-16T00:41:49;11.80;90.90
16116;DHT22;8162;47.104;15.432;2022-10-16T00:47:15;11.80;91.20
16116;DHT22;8162;47.104;15.432;2022-10-16T00:49:43;11.80;91.10
16116;DHT22;8162;47.104;15.432;2022-10-16T00:52:09;11.80;91.10
16116;DHT22;8162;47.104;15.432;2022-10-16T00:54:35;11.80;91.10
16116;DHT22;8162;47.104;15.432;2022-10-16T00:57:04;11.80;91.10
16116;DHT22;8162;47.104;15.432;2022-10-16T00:59:34;11.80;90.90
16116;DHT22;8162;47.104;15.432;2022-10-16T01:02:01;11.80;90.90
16116;DHT22;8162;47.104;15.432;2022-10-16T01:04:35;11.70;90.90
16116;DHT22;8162;47.104;15.432;2022-10-16T01:12:46;11.60;90.90
16116;DHT22;8162;47.104;15.432;2022-10-16T01:15:37;11.60;90.90
16116;DHT22;8162;47.104;15.432;2022-10-16T01:20:57;11.50;90.80
16116;DHT22;8162;47.104;15.432;2022-10-16T01:28:24;11.50;90.80
16116;DHT22;8162;47.104;15.432;2022-10-16T01:30:57;11.50;90.70
16116;DHT22;8162;47.104;15.432;2022-10-16T01:33:40;11.40;90.80
16116;DHT22;8162;47.104;15.432;2022-10-16T01:36:14;11.50;90.70
16116;DHT22;8162;47.104;15.432;2022-10-16T01:38:43;11.40;90.80
16116;DHT22;8162;47.104;15.432;2022-10-16T01:41:31;11.40;90.70
16116;DHT22;8162;47.104;15.432;2022-10-16T01:44:07;11.40;90.70
16116;DHT22;8162;47.104;15.432;2022-10-16T01:46:34;11.30;90.70
16116;DHT22;8162;47.104;15.432;2022-10-16T01:49:03;11.30;90.80
16116;DHT22;8162;47.104;15.432;2022-10-16T01:51:29;11.30;90.80
16116;DHT22;8162;47.104;15.432;2022-10-16T01:53:57;11.30;90.80
16116;DHT22;8162;47.104;15.432;2022-10-16T01:56:25;11.40;90.80
16116;DHT22;8162;47.104;15.432;2022-10-16T01:58:59;11.40;91.00
16116;DHT22;8162;47.104;15.432;2022-10-16T02:01:29;11.40;90.90
16116;DHT22;8162;47.104;15.432;2022-10-16T02:03:59;11.30;90.80
16116;DHT22;8162;47.104;15.432;2022-10-16T02:06:26;11.40;90.80
16116;DHT22;8162;47.104;15.432;2022-10-16T02:08:53;11.40;90.70
16116;DHT22;8162;47.104;15.432;2022-10-16T02:11:19;11.40;90.70
16116;DHT22;8162;47.104;15.432;2022-10-16T02:14:00;11.40;90.70
16116;DHT22;8162;47.104;15.432;2022-10-16T02:16:44;11.40;90.70
16116;DHT22;8162;47.104;15.432;2022-10-16T02:19:12;11.40;90.80
16116;DHT22;8162;47.104;15.432;2022-10-16T02:29:35;11.50;91.20
16116;DHT22;8162;47.104;15.432;2022-10-16T02:32:05;11.50;91.20
16116;DHT22;8162;47.104;15.432;2022-10-16T02:34:33;11.50;91.20
16116;DHT22;8162;47.104;15.432;2022-10-16T02:37:01;11.50;91.10
16116;DHT22;8162;47.104;15.432;2022-10-16T02:39:28;11.50;91.00
16116;DHT22;8162;47.104;15.432;2022-10-16T02:41:54;11.40;91.00
16116;DHT22;8162;47.104;15.432;2022-10-16T02:44:20;11.50;91.00
16116;DHT22;8162;47.104;15.432;2022-10-16T02:46:46;11.50;90.90
16116;DHT22;8162;47.104;15.432;2022-10-16T02:49:11;11.40;90.90
16116;DHT22;8162;47.104;15.432;2022-10-16T02:51:37;11.50;91.00
16116;DHT22;8162;47.104;15.432;2022-10-16T02:54:03;11.40;90.90
16116;DHT22;8162;47.104;15.432;2022-10-16T02:56:29;11.30;91.10
16116;DHT22;8162;47.104;15.432;2022-10-16T02:58:55;11.30;91.10
16116;DHT22;8162;47.104;15.432;2022-10-16T03:01:21;11.30;91.00
16116;DHT22;8162;47.104;15.432;2022-10-16T03:03:47;11.40;91.00
16116;DHT22;8162;47.104;15.432;2022-10-16T03:06:12;11.30;90.90
16116;DHT22;8162;47.104;15.432;2022-10-16T03:08:38;11.30;90.80
16116;DHT22;8162;47.104;15.432;2022-10-16T03:11:04;11.30;90.80
16116;DHT22;8162;47.104;15.432;2022-10-16T03:13:30;11.30;90.80
16116;DHT22;8162;47.104;15.432;2022-10-16T03:15:56;11.30;90.70
16116;DHT22;8162;47.104;15.432;2022-10-16T03:18:21;11.30;90.80
16116;DHT22;8162;47.104;15.432;2022-10-16T03:20:47;11.30;90.90
16116;DHT22;8162;47.104;15.432;2022-10-16T03:23:13;11.30;91.00
16116;DHT22;8162;47.104;15.432;2022-10-16T03:25:39;11.30;90.90
16116;DHT22;8162;47.104;15.432;2022-10-16T03:28:05;11.40;90.80
16116;DHT22;8162;47.104;15.432;2022-10-16T03:30:30;11.30;90.80
16116;DHT22;8162;47.104;15.432;2022-10-16T03:32:56;11.30;90.90
16116;DHT22;8162;47.104;15.432;2022-10-16T03:35:23;11.30;90.90
16116;DHT22;8162;47.104;15.432;2022-10-16T03:37:49;11.30;90.90
16116;DHT22;8162;47.104;15.432;2022-10-16T03:40:16;11.30;90.80
16116;DHT22;8162;47.104;15.432;2022-10-16T03:42:42;11.30;90.80
16116;DHT22;8162;47.104;15.432;2022-10-16T03:45:09;11.30;90.70
16116;DHT22;8162;47.104;15.432;2022-10-16T03:47:35;11.30;90.70
16116;DHT22;8162;47.104;15.432;2022-10-16T03:50:01;11.30;90.80
16116;DHT22;8162;47.104;15.432;2022-10-16T03:52:26;11.30;90.70
16116;DHT22;8162;47.104;15.432;2022-10-16T03:54:52;11.30;90.80
16116;DHT22;8162;47.104;15.432;2022-10-16T03:57:18;11.30;90.80
16116;DHT22;8162;47.104;15.432;2022-10-16T03:59:43;11.30;90.90
16116;DHT22;8162;47.104;15.432;2022-10-16T04:02:09;11.40;90.90
16116;DHT22;8162;47.104;15.432;2022-10-16T04:04:35;11.40;90.90
16116;DHT22;8162;47.104;15.432;2022-10-16T04:07:01;11.40;90.90
16116;DHT22;8162;47.104;15.432;2022-10-16T04:09:26;11.40;91.00
16116;DHT22;8162;47.104;15.432;2022-10-16T04:11:52;11.40;90.90
16116;DHT22;8162;47.104;15.432;2022-10-16T04:14:18;11.40;90.90
16116;DHT22;8162;47.104;15.432;2022-10-16T04:16:44;11.40;91.00
16116;DHT22;8162;47.104;15.432;2022-10-16T04:19:10;11.50;91.00
16116;DHT22;8162;47.104;15.432;2022-10-16T04:21:36;11.50;91.00
16116;DHT22;8162;47.104;15.432;2022-10-16T04:24:02;11.50;91.20
16116;DHT22;8162;47.104;15.432;2022-10-16T04:26:28;11.50;91.10
16116;DHT22;8162;47.104;15.432;2022-10-16T04:28:54;11.50;91.00
16116;DHT22;8162;47.104;15.432;2022-10-16T04:31:20;11.50;91.00
16116;DHT22;8162;47.104;15.432;2022-10-16T04:33:46;11.50;91.00
16116;DHT22;8162;47.104;15.432;2022-10-16T04:36:12;11.50;91.20
16116;DHT22;8162;47.104;15.432;2022-10-16T04:38:38;11.50;91.20
16116;DHT22;8162;47.104;15.432;2022-10-16T04:41:05;11.50;91.30
16116;DHT22;8162;47.104;15.432;2022-10-16T04:43:31;11.50;91.20
16116;DHT22;8162;47.104;15.432;2022-10-16T04:45:57;11.50;91.20
16116;DHT22;8162;47.104;15.432;2022-10-16T04:48:22;11.60;91.20
16116;DHT22;8162;47.104;15.432;2022-10-16T04:50:48;11.60;91.20
16116;DHT22;8162;47.104;15.432;2022-10-16T04:53:14;11.60;91.20
16116;DHT22;8162;47.104;15.432;2022-10-16T04:55:41;11.60;91.10
16116;DHT22;8162;47.104;15.432;2022-10-16T04:58:07;11.50;91.10
16116;DHT22;8162;47.104;15.432;2022-10-16T05:00:33;11.50;91.00
16116;DHT22;8162;47.104;15.432;2022-10-16T05:02:59;11.60;91.00
16116;DHT22;8162;47.104;15.432;2022-10-16T05:05:26;11.50;90.90
16116;DHT22;8162;47.104;15.432;2022-10-16T05:07:52;11.60;90.90
16116;DHT22;8162;47.104;15.432;2022-10-16T05:10:18;11.60;90.90
16116;DHT22;8162;47.104;15.432;2022-10-16T05:12:44;11.60;90.90
16116;DHT22;8162;47.104;15.432;2022-10-16T05:15:10;11.60;91.00
16116;DHT22;8162;47.104;15.432;2022-10-16T05:17:36;11.60;90.90
16116;DHT22;8162;47.104;15.432;2022-10-16T05:20:02;11.60;90.90
16116;DHT22;8162;47.104;15.432;2022-10-16T05:22:28;11.60;90.80
16116;DHT22;8162;47.104;15.432;2022-10-16T05:24:54;11.60;90.80
16116;DHT22;8162;47.104;15.432;2022-10-16T05:27:20;11.60;90.70
16116;DHT22;8162;47.104;15.432;2022-10-16T05:29:47;11.60;90.80
16116;DHT22;8162;47.104;15.432;2022-10-16T05:32:13;11.60;90.70
16116;DHT22;8162;47.104;15.432;2022-10-16T05:34:39;11.60;90.70
16116;DHT22;8162;47.104;15.432;2022-10-16T05:37:05;11.70;90.70
16116;DHT22;8162;47.104;15.432;2022-10-16T05:39:31;11.70;90.90
16116;DHT22;8162;47.104;15.432;2022-10-16T05:41:57;11.70;90.90
16116;DHT22;8162;47.104;15.432;2022-10-16T05:44:22;11.70;90.80
16116;DHT22;8162;47.104;15.432;2022-10-16T05:46:48;11.70;90.80
16116;DHT22;8162;47.104;15.432;2022-10-16T05:49:14;11.80;90.80
16116;DHT22;8162;47.104;15.432;2022-10-16T05:51:40;11.70;90.60
16116;DHT22;8162;47.104;15.432;2022-10-16T05:54:06;11.70;90.90
16116;DHT22;8162;47.104;15.432;2022-10-16T05:56:32;11.70;90.80
16116;DHT22;8162;47.104;15.432;2022-10-16T05:58:58;11.70;90.60
16116;DHT22;8162;47.104;15.432;2022-10-16T06:01:24;11.70;90.80
16116;DHT22;8162;47.104;15.432;2022-10-16T06:03:53;11.70;90.80
16116;DHT22;8162;47.104;15.432;2022-10-16T06:06:21;11.70;90.70
16116;DHT22;8162;47.104;15.432;2022-10-16T06:08:47;11.60;90.70
16116;DHT22;8162;47.104;15.432;2022-10-16T06:11:18;11.60;90.70
16116;DHT22;8162;47.104;15.432;2022-10-16T06:13:44;11.60;90.60
16116;DHT22;8162;47.104;15.432;2022-10-16T06:16:12;11.60;90.50
16116;DHT22;8162;47.104;15.432;2022-10-16T06:18:38;11.60;90.40
16116;DHT22;8162;47.104;15.432;2022-10-16T06:21:10;11.60;90.40
16116;DHT22;8162;47.104;15.432;2022-10-16T06:23:35;11.60;90.40
16116;DHT22;8162;47.104;15.432;2022-10-16T06:26:11;11.50;90.40
16116;DHT22;8162;47.104;15.432;2022-10-16T06:28:38;11.60;90.50
16116;DHT22;8162;47.104;15.432;2022-10-16T06:31:05;11.60;90.40
16116;DHT22;8162;47.104;15.432;2022-10-16T06:33:31;11.60;90.40
16116;DHT22;8162;47.104;15.432;2022-10-16T06:36:05;11.50;90.40
16116;DHT22;8162;47.104;15.432;2022-10-16T06:38:31;11.50;90.50
16116;DHT22;8162;47.104;15.432;2022-10-16T06:40:58;11.50;90.50
16116;DHT22;8162;47.104;15.432;2022-10-16T06:43:31;11.50;90.40
16116;DHT22;8162;47.104;15.432;2022-10-16T06:46:11;11.50;90.40
16116;DHT22;8162;47.104;15.432;2022-10-16T06:48:39;11.60;90.30
16116;DHT22;8162;47.104;15.432;2022-10-16T06:51:14;11.60;90.30
16116;DHT22;8162;47.104;15.432;2022-10-16T06:53:45;11.60;90.30
16116;DHT22;8162;47.104;15.432;2022-10-16T06:56:15;11.60;90.30
16116;DHT22;8162;47.104;15.432;2022-10-16T06:58:41;11.60;90.20
16116;DHT22;8162;47.104;15.432;2022-10-16T07:01:07;11.60;90.40
16116;DHT22;8162;47.104;15.432;2022-10-16T07:03:36;11.70;90.40
16116;DHT22;8162;47.104;15.432;2022-10-16T07:06:04;11.70;90.50
16116;DHT22;8162;47.104;15.432;2022-10-16T07:08:34;11.80;90.60
16116;DHT22;8162;47.104;15.432;2022-10-16T07:11:05;11.80;90.60
16116;DHT22;8162;47.104;15.432;2022-10-16T07:13:39;11.80;90.60
16116;DHT22;8162;47.104;15.432;2022-10-16T07:16:13;11.80;90.80
16116;DHT22;8162;47.104;15.432;2022-10-16T07:18:40;11.80;90.90
16116;DHT22;8162;47.104;15.432;2022-10-16T07:21:07;11.90;90.90
16116;DHT22;8162;47.104;15.432;2022-10-16T07:23:33;11.90;91.20
16116;DHT22;8162;47.104;15.432;2022-10-16T07:25:59;12.00;91.30
16116;DHT22;8162;47.104;15.432;2022-10-16T07:28:24;12.00;91.30
16116;DHT22;8162;47.104;15.432;2022-10-16T07:30:50;12.10;91.30
16116;DHT22;8162;47.104;15.432;2022-10-16T07:33:16;12.10;91.30
16116;DHT22;8162;47.104;15.432;2022-10-16T07:35:52;12.20;91.30
16116;DHT22;8162;47.104;15.432;2022-10-16T07:38:19;12.20;91.40
16116;DHT22;8162;47.104;15.432;2022-10-16T07:40:45;12.30;91.40
16116;DHT22;8162;47.104;15.432;2022-10-16T07:43:11;12.30;91.40
16116;DHT22;8162;47.104;15.432;2022-10-16T07:45:36;12.30;91.40
16116;DHT22;8162;47.104;15.432;2022-10-16T07:48:02;12.30;91.60
16116;DHT22;8162;47.104;15.432;2022-10-16T07:50:28;12.30;91.50
16116;DHT22;8162;47.104;15.432;2022-10-16T07:52:54;12.40;91.50
16116;DHT22;8162;47.104;15.432;2022-10-16T07:55:19;12.40;91.50
16116;DHT22;8162;47.104;15.432;2022-10-16T07:57:45;12.50;91.60
16116;DHT22;8162;47.104;15.432;2022-10-16T08:00:11;12.50;91.80
16116;DHT22;8162;47.104;15.432;2022-10-16T08:02:40;12.60;91.50
16116;DHT22;8162;47.104;15.432;2022-10-16T08:05:06;12.70;91.80
16116;DHT22;8162;47.104;15.432;2022-10-16T08:07:32;12.70;91.80
16116;DHT22;8162;47.104;15.432;2022-10-16T08:09:58;12.80;91.80
16116;DHT22;8162;47.104;15.432;2022-10-16T08:12:26;12.80;91.60
16116;DHT22;8162;47.104;15.432;2022-10-16T08:14:51;12.80;91.60
16116;DHT22;8162;47.104;15.432;2022-10-16T08:17:17;12.80;91.50
16116;DHT22;8162;47.104;15.432;2022-10-16T08:19:46;12.90;91.60
16116;DHT22;8162;47.104;15.432;2022-10-16T08:22:13;13.00;91.40
16116;DHT22;8162;47.104;15.432;2022-10-16T08:24:40;13.00;91.40
16116;DHT22;8162;47.104;15.432;2022-10-16T08:27:06;13.10;91.50
16116;DHT22;8162;47.104;15.432;2022-10-16T08:29:32;13.10;91.60
16116;DHT22;8162;47.104;15.432;2022-10-16T08:31:58;13.10;91.60
16116;DHT22;8162;47.104;15.432;2022-10-16T08:34:24;13.20;91.70
16116;DHT22;8162;47.104;15.432;2022-10-16T08:36:49;13.30;91.60
16116;DHT22;8162;47.104;15.432;2022-10-16T08:39:18;13.30;91.50
16116;DHT22;8162;47.104;15.432;2022-10-16T08:44:30;13.50;91.50
16116;DHT22;8162;47.104;15.432;2022-10-16T08:47:20;13.50;91.40
16116;DHT22;8162;47.104;15.432;2022-10-16T08:49:59;13.80;90.50
16116;DHT22;8162;47.104;15.432;2022-10-16T08:52:29;13.80;90.60
16116;DHT22;8162;47.104;15.432;2022-10-16T08:54:58;13.80;89.70
16116;DHT22;8162;47.104;15.432;2022-10-16T08:57:25;13.90;89.70
16116;DHT22;8162;47.104;15.432;2022-10-16T08:59:54;14.00;89.80
16116;DHT22;8162;47.104;15.432;2022-10-16T09:02:41;14.20;89.00
16116;DHT22;8162;47.104;15.432;2022-10-16T09:07:59;14.30;89.20
16116;DHT22;8162;47.104;15.432;2022-10-16T09:13:50;14.50;88.50
16116;DHT22;8162;47.104;15.432;2022-10-16T09:19:00;14.80;87.30
16116;DHT22;8162;47.104;15.432;2022-10-16T09:21:33;14.80;87.00
16116;DHT22;8162;47.104;15.432;2022-10-16T09:24:17;14.90;86.90
16116;DHT22;8162;47.104;15.432;2022-10-16T09:26:44;15.10;86.00
16116;DHT22;8162;47.104;15.432;2022-10-16T09:29:18;15.00;86.70
16116;DHT22;8162;47.104;15.432;2022-10-16T09:31:51;15.10;86.40
16116;DHT22;8162;47.104;15.432;2022-10-16T09:34:32;15.30;85.40
16116;DHT22;8162;47.104;15.432;2022-10-16T09:36:59;15.30;85.50
16116;DHT22;8162;47.104;15.432;2022-10-16T09:39:28;15.40;84.50
16116;DHT22;8162;47.104;15.432;2022-10-16T09:41:55;15.50;84.90
16116;DHT22;8162;47.104;15.432;2022-10-16T09:44:26;15.40;85.50
16116;DHT22;8162;47.104;15.432;2022-10-16T09:47:14;15.50;85.80
16116;DHT22;8162;47.104;15.432;2022-10-16T09:52:23;15.70;84.30
16116;DHT22;8162;47.104;15.432;2022-10-16T09:54:54;15.80;82.60
16116;DHT22;8162;47.104;15.432;2022-10-16T09:57:20;16.00;82.20
16116;DHT22;8162;47.104;15.432;2022-10-16T09:59:51;16.10;82.50
16116;DHT22;8162;47.104;15.432;2022-10-16T10:04:54;16.20;82.40
16116;DHT22;8162;47.104;15.432;2022-10-16T10:07:35;16.30;82.10
16116;DHT22;8162;47.104;15.432;2022-10-16T10:10:04;16.30;81.90
16116;DHT22;8162;47.104;15.432;2022-10-16T10:12:31;16.30;81.20
16116;DHT22;8162;47.104;15.432;2022-10-16T10:15:04;16.50;80.70
16116;DHT22;8162;47.104;15.432;2022-10-16T10:17:31;16.70;79.50
16116;DHT22;8162;47.104;15.432;2022-10-16T10:19:58;16.80;78.70
16116;DHT22;8162;47.104;15.432;2022-10-16T10:44:16;17.30;78.40
16116;DHT22;8162;47.104;15.432;2022-10-16T10:46:50;17.30;78.30
16116;DHT22;8162;47.104;15.432;2022-10-16T10:52:05;17.50;78.10
16116;DHT22;8162;47.104;15.432;2022-10-16T10:54:58;17.70;75.50
16116;DHT22;8162;47.104;15.432;2022-10-16T10:57:37;17.80;75.70
16116;DHT22;8162;47.104;15.432;2022-10-16T11:00:28;17.80;76.00
16116;DHT22;8162;47.104;15.432;2022-10-16T11:08:32;18.20;75.70
16116;DHT22;8162;47.104;15.432;2022-10-16T11:11:04;18.20;75.70
16116;DHT22;8162;47.104;15.432;2022-10-16T11:16:45;18.40;75.90
16116;DHT22;8162;47.104;15.432;2022-10-16T11:22:22;18.80;73.50
16116;DHT22;8162;47.104;15.432;2022-10-16T11:27:50;19.00;72.30
16116;DHT22;8162;47.104;15.432;2022-10-16T11:30:26;19.10;73.50
16116;DHT22;8162;47.104;15.432;2022-10-16T11:39:02;19.30;71.30
16116;DHT22;8162;47.104;15.432;2022-10-16T11:50:09;19.90;72.00
16116;DHT22;8162;47.104;15.432;2022-10-16T11:55:42;20.20;67.60
16116;DHT22;8162;47.104;15.432;2022-10-16T11:58:24;20.20;69.20
16116;DHT22;8162;47.104;15.432;2022-10-16T12:06:34;20.60;68.40
16116;DHT22;8162;47.104;15.432;2022-10-16T12:09:03;20.60;68.40
16116;DHT22;8162;47.104;15.432;2022-10-16T12:16:30;21.10;65.80
16116;DHT22;8162;47.104;15.432;2022-10-16T12:19:17;21.30;66.20
16116;DHT22;8162;47.104;15.432;2022-10-16T12:21:44;21.20;67.30
16116;DHT22;8162;47.104;15.432;2022-10-16T12:26:58;21.20;65.00
16116;DHT22;8162;47.104;15.432;2022-10-16T12:31:59;21.50;62.90
16116;DHT22;8162;47.104;15.432;2022-10-16T12:34:42;21.60;66.00
16116;DHT22;8162;47.104;15.432;2022-10-16T12:37:23;21.60;66.50
16116;DHT22;8162;47.104;15.432;2022-10-16T12:39:50;21.90;62.00
16116;DHT22;8162;47.104;15.432;2022-10-16T12:44:55;22.00;63.20
16116;DHT22;8162;47.104;15.432;2022-10-16T12:49:55;22.30;62.30
16116;DHT22;8162;47.104;15.432;2022-10-16T12:54:59;22.60;59.80
16116;DHT22;8162;47.104;15.432;2022-10-16T13:00:58;22.70;62.10
16116;DHT22;8162;47.104;15.432;2022-10-16T13:03:23;22.70;60.70
16116;DHT22;8162;47.104;15.432;2022-10-16T13:17:09;23.40;60.80
16116;DHT22;8162;47.104;15.432;2022-10-16T13:20:04;23.70;57.80
16116;DHT22;8162;47.104;15.432;2022-10-16T13:22:53;24.20;58.90
16116;DHT22;8162;47.104;15.432;2022-10-16T13:28:14;26.20;49.90
16116;DHT22;8162;47.104;15.432;2022-10-16T13:30:52;27.20;50.40
16116;DHT22;8162;47.104;15.432;2022-10-16T13:33:24;27.80;48.50
16116;DHT22;8162;47.104;15.432;2022-10-16T13:35:54;27.80;47.10
16116;DHT22;8162;47.104;15.432;2022-10-16T13:38:22;28.60;47.80
16116;DHT22;8162;47.104;15.432;2022-10-16T13:43:39;28.60;46.50
16116;DHT22;8162;47.104;15.432;2022-10-16T13:46:20;29.20;45.10
16116;DHT22;8162;47.104;15.432;2022-10-16T13:48:56;29.30;42.20
16116;DHT22;8162;47.104;15.432;2022-10-16T13:51:22;29.20;44.00
16116;DHT22;8162;47.104;15.432;2022-10-16T13:53:48;28.80;45.70
16116;DHT22;8162;47.104;15.432;2022-10-16T13:56:16;27.80;45.70
16116;DHT22;8162;47.104;15.432;2022-10-16T13:58:43;26.60;47.50
16116;DHT22;8162;47.104;15.432;2022-10-16T14:01:23;26.30;50.00
16116;DHT22;8162;47.104;15.432;2022-10-16T14:03:51;26.30;50.90
16116;DHT22;8162;47.104;15.432;2022-10-16T14:06:19;26.00;49.90
16116;DHT22;8162;47.104;15.432;2022-10-16T14:09:38;25.60;50.40
16116;DHT22;8162;47.104;15.432;2022-10-16T14:11:47;25.60;51.50
16116;DHT22;8162;47.104;15.432;2022-10-16T14:14:14;25.50;51.20
16116;DHT22;8162;47.104;15.432;2022-10-16T14:16:41;25.10;51.50
16116;DHT22;8162;47.104;15.432;2022-10-16T14:19:24;25.00;52.60
16116;DHT22;8162;47.104;15.432;2022-10-16T14:21:51;24.90;52.90
16116;DHT22;8162;47.104;15.432;2022-10-16T14:24:32;24.80;53.40
16116;DHT22;8162;47.104;15.432;2022-10-16T14:26:58;24.70;53.90
16116;DHT22;8162;47.104;15.432;2022-10-16T14:29:26;24.40;54.20
16116;DHT22;8162;47.104;15.432;2022-10-16T14:31:56;24.20;55.00
16116;DHT22;8162;47.104;15.432;2022-10-16T14:34:24;24.20;55.20
16116;DHT22;8162;47.104;15.432;2022-10-16T14:36:50;24.20;55.20
16116;DHT22;8162;47.104;15.432;2022-10-16T14:39:21;24.20;55.40
16116;DHT22;8162;47.104;15.432;2022-10-16T14:41:50;24.20;55.30
16116;DHT22;8162;47.104;15.432;2022-10-16T14:44:23;24.50;53.70
16116;DHT22;8162;47.104;15.432;2022-10-16T14:46:51;24.50;54.30
16116;DHT22;8162;47.104;15.432;2022-10-16T14:49:19;24.60;54.30
16116;DHT22;8162;47.104;15.432;2022-10-16T14:51:46;24.60;54.50
16116;DHT22;8162;47.104;15.432;2022-10-16T14:54:13;24.50;54.70
16116;DHT22;8162;47.104;15.432;2022-10-16T14:56:48;24.30;53.60
16116;DHT22;8162;47.104;15.432;2022-10-16T14:59:25;24.40;54.80
16116;DHT22;8162;47.104;15.432;2022-10-16T15:01:53;24.60;55.30
16116;DHT22;8162;47.104;15.432;2022-10-16T15:04:18;24.80;54.20
16116;DHT22;8162;47.104;15.432;2022-10-16T15:06:44;24.60;53.90
16116;DHT22;8162;47.104;15.432;2022-10-16T15:09:10;24.60;54.70
16116;DHT22;8162;47.104;15.432;2022-10-16T15:11:36;24.60;54.60
16116;DHT22;8162;47.104;15.432;2022-10-16T15:14:02;24.30;54.50
16116;DHT22;8162;47.104;15.432;2022-10-16T15:16:29;23.70;55.20
16116;DHT22;8162;47.104;15.432;2022-10-16T15:18:55;23.30;56.80
16116;DHT22;8162;47.104;15.432;2022-10-16T15:21:25;23.00;57.30
16116;DHT22;8162;47.104;15.432;2022-10-16T15:23:51;22.90;58.30
16116;DHT22;8162;47.104;15.432;2022-10-16T15:26:17;22.80;59.20
16116;DHT22;8162;47.104;15.432;2022-10-16T15:28:42;22.20;58.20
16116;DHT22;8162;47.104;15.432;2022-10-16T15:31:08;21.70;61.10
16116;DHT22;8162;47.104;15.432;2022-10-16T15:33:34;21.30;61.60
16116;DHT22;8162;47.104;15.432;2022-10-16T15:36:01;21.60;62.20
16116;DHT22;8162;47.104;15.432;2022-10-16T15:38:28;21.60;62.60
16116;DHT22;8162;47.104;15.432;2022-10-16T15:40:55;21.50;63.00
16116;DHT22;8162;47.104;15.432;2022-10-16T15:43:21;21.20;64.00
16116;DHT22;8162;47.104;15.432;2022-10-16T15:46:03;21.10;64.70
16116;DHT22;8162;47.104;15.432;2022-10-16T15:48:30;20.90;65.10
16116;DHT22;8162;47.104;15.432;2022-10-16T15:50:56;20.70;66.00
16116;DHT22;8162;47.104;15.432;2022-10-16T15:53:22;20.50;66.60
16116;DHT22;8162;47.104;15.432;2022-10-16T15:55:47;20.30;67.00
16116;DHT22;8162;47.104;15.432;2022-10-16T15:58:13;20.10;67.90
16116;DHT22;8162;47.104;15.432;2022-10-16T16:00:39;20.00;68.20
16116;DHT22;8162;47.104;15.432;2022-10-16T16:03:04;19.80;68.90
16116;DHT22;8162;47.104;15.432;2022-10-16T16:05:30;19.60;69.10
16116;DHT22;8162;47.104;15.432;2022-10-16T16:07:57;19.50;70.00
16116;DHT22;8162;47.104;15.432;2022-10-16T16:10:22;19.30;70.90
16116;DHT22;8162;47.104;15.432;2022-10-16T16:12:49;19.10;71.70
16116;DHT22;8162;47.104;15.432;2022-10-16T16:15:18;18.90;71.60
16116;DHT22;8162;47.104;15.432;2022-10-16T16:17:44;18.80;72.00
16116;DHT22;8162;47.104;15.432;2022-10-16T16:20:11;18.80;72.50
16116;DHT22;8162;47.104;15.432;2022-10-16T16:22:37;18.70;72.40
16116;DHT22;8162;47.104;15.432;2022-10-16T16:25:02;18.60;72.90
16116;DHT22;8162;47.104;15.432;2022-10-16T16:27:28;18.50;73.00
16116;DHT22;8162;47.104;15.432;2022-10-16T16:29:55;18.40;73.40
16116;DHT22;8162;47.104;15.432;2022-10-16T16:32:21;18.30;73.90
16116;DHT22;8162;47.104;15.432;2022-10-16T16:34:47;18.20;74.20
16116;DHT22;8162;47.104;15.432;2022-10-16T16:37:13;18.10;74.50
16116;DHT22;8162;47.104;15.432;2022-10-16T16:39:39;18.00;74.90
16116;DHT22;8162;47.104;15.432;2022-10-16T16:42:04;17.80;75.30
16116;DHT22;8162;47.104;15.432;2022-10-16T16:44:32;17.80;75.80
16116;DHT22;8162;47.104;15.432;2022-10-16T16:46:58;17.60;75.90
16116;DHT22;8162;47.104;15.432;2022-10-16T16:49:25;17.60;76.40
16116;DHT22;8162;47.104;15.432;2022-10-16T16:51:52;17.50;76.50
16116;DHT22;8162;47.104;15.432;2022-10-16T16:54:18;17.40;76.60
16116;DHT22;8162;47.104;15.432;2022-10-16T16:56:44;17.30;76.70
16116;DHT22;8162;47.104;15.432;2022-10-16T16:59:13;17.30;77.00
16116;DHT22;8162;47.104;15.432;2022-10-16T17:01:40;17.10;77.10
16116;DHT22;8162;47.104;15.432;2022-10-16T17:04:06;17.10;77.20
16116;DHT22;8162;47.104;15.432;2022-10-16T17:06:33;17.00;77.60
16116;DHT22;8162;47.104;15.432;2022-10-16T17:09:01;16.90;77.70
16116;DHT22;8162;47.104;15.432;2022-10-16T17:11:28;16.90;77.80
16116;DHT22;8162;47.104;15.432;2022-10-16T17:13:56;16.80;78.40
16116;DHT22;8162;47.104;15.432;2022-10-16T17:16:24;16.80;78.50
16116;DHT22;8162;47.104;15.432;2022-10-16T17:18:51;16.70;78.60
16116;DHT22;8162;47.104;15.432;2022-10-16T17:21:19;16.70;78.50
16116;DHT22;8162;47.104;15.432;2022-10-16T17:23:45;16.60;79.00
16116;DHT22;8162;47.104;15.432;2022-10-16T17:26:14;16.60;78.80
16116;DHT22;8162;47.104;15.432;2022-10-16T17:28:41;16.50;78.80
16116;DHT22;8162;47.104;15.432;2022-10-16T17:31:19;16.50;79.00
16116;DHT22;8162;47.104;15.432;2022-10-16T17:33:46;16.30;79.10
16116;DHT22;8162;47.104;15.432;2022-10-16T17:36:12;16.30;79.30
16116;DHT22;8162;47.104;15.432;2022-10-16T17:38:42;16.20;79.90
16116;DHT22;8162;47.104;15.432;2022-10-16T17:41:20;16.20;80.00
16116;DHT22;8162;47.104;15.432;2022-10-16T17:43:47;16.10;80.20
16116;DHT22;8162;47.104;15.432;2022-10-16T17:46:16;16.00;80.30
16116;DHT22;8162;47.104;15.432;2022-10-16T17:48:49;16.00;80.50
16116;DHT22;8162;47.104;15.432;2022-10-16T17:51:21;16.00;80.80
16116;DHT22;8162;47.104;15.432;2022-10-16T17:53:52;15.90;80.70
16116;DHT22;8162;47.104;15.432;2022-10-16T17:56:19;15.80;80.80
16116;DHT22;8162;47.104;15.432;2022-10-16T17:58:56;15.80;80.80
16116;DHT22;8162;47.104;15.432;2022-10-16T18:01:35;15.80;81.00